sensor_id;sensor_type;location;lat;lon;timestamp;temperature;humidity
63383;DHT22;49512;48.744;9.176;2023-03-12T00:00:57;12.70;96.80
63383;DHT22;49512;48.744;9.176;2023-03-12T00:03:23;12.70;96.80
63383;DHT22;49512;48.744;9.176;2023-03-12T00:05:48;12.70;96.80
63383;DHT22;49512;48.744;9.176;2023-03-12T00:08:14;12.70;96.80
63383;DHT22;49512;48.744;9.176;2023-03-12T00:10:40;12.70;96.80
63383;DHT22;49512;48.744;9.176;2023-03-12T00:13:06;12.60;96.70
63383;DHT22;49512;48.744;9.176;2023-03-12T00:15:34;12.70;96.70
63383;DHT22;49512;48.744;9.176;2023-03-12T00:18:00;12.70;96.60
63383;DHT22;49512;48.744;9.176;2023-03-12T00:20:25;12.60;96.70
63383;DHT22;49512;48.744;9.176;2023-03-12T00:22:51;12.60;96.60
63383;DHT22;49512;48.744;9.176;2023-03-12T00:25:16;12.60;96.60
63383;DHT22;49512;48.744;9.176;2023-03-12T00:27:42;12.70;96.60
63383;DHT22;49512;48.744;9.176;2023-03-12T00:30:09;12.60;96.60
63383;DHT22;49512;48.744;9.176;2023-03-12T00:32:38;12.70;96.60
63383;DHT22;49512;48.744;9.176;2023-03-12T00:35:04;12.70;96.50
63383;DHT22;49512;48.744;9.176;2023-03-12T00:37:30;12.70;96.50
63383;DHT22;49512;48.744;9.176;2023-03-12T00:39:57;12.70;96.50
63383;DHT22;49512;48.744;9.176;2023-03-12T00:42:22;12.60;96.50
63383;DHT22;49512;48.744;9.176;2023-03-12T00:44:48;12.60;96.50
63383;DHT22;49512;48.744;9.176;2023-03-12T00:47:13;12.70;96.50
63383;DHT22;49512;48.744;9.176;2023-03-12T00:49:39;12.70;96.50
63383;DHT22;49512;48.744;9.176;2023-03-12T00:52:04;12.60;96.50
63383;DHT22;49512;48.744;9.176;2023-03-12T00:54:30;12.70;96.60
63383;DHT22;49512;48.744;9.176;2023-03-12T00:56:55;12.60;96.60
63383;DHT22;49512;48.744;9.176;2023-03-12T00:59:21;12.60;96.60
63383;DHT22;49512;48.744;9.176;2023-03-12T01:01:47;12.60;96.60
63383;DHT22;49512;48.744;9.176;2023-03-12T01:04:12;12.60;96.60
63383;DHT22;49512;48.744;9.176;2023-03-12T01:06:38;12.60;96.50
63383;DHT22;49512;48.744;9.176;2023-03-12T01:09:05;12.60;96.50
63383;DHT22;49512;48.744;9.176;2023-03-12T01:11:30;12.60;96.40
63383;DHT22;49512;48.744;9.176;2023-03-12T01:13:57;12.60;96.40
63383;DHT22;49512;48.744;9.176;2023-03-12T01:16:23;12.50;96.30
63383;DHT22;49512;48.744;9.176;2023-03-12T01:18:53;12.60;96.30
63383;DHT22;49512;48.744;9.176;2023-03-12T01:21:18;12.60;96.30
63383;DHT22;49512;48.744;9.176;2023-03-12T01:23:44;12.50;96.30
63383;DHT22;49512;48.744;9.176;2023-03-12T01:26:09;12.60;96.30
63383;DHT22;49512;48.744;9.176;2023-03-12T01:28:35;12.60;96.20
63383;DHT22;49512;48.744;9.176;2023-03-12T01:31:11;12.50;96.20
63383;DHT22;49512;48.744;9.176;2023-03-12T01:33:37;12.60;96.10
63383;DHT22;49512;48.744;9.176;2023-03-12T01:36:03;12.60;96.10
63383;DHT22;49512;48.744;9.176;2023-03-12T01:38:28;12.60;96.10
63383;DHT22;49512;48.744;9.176;2023-03-12T01:40:54;12.50;96.00
63383;DHT22;49512;48.744;9.176;2023-03-12T01:43:53;12.50;95.90
63383;DHT22;49512;48.744;9.176;2023-03-12T01:48:41;12.50;95.90
63383;DHT22;49512;48.744;9.176;2023-03-12T01:51:09;12.50;95.80
63383;DHT22;49512;48.744;9.176;2023-03-12T01:53:36;12.50;95.80
63383;DHT22;49512;48.744;9.176;2023-03-12T01:56:02;12.50;95.80
63383;DHT22;49512;48.744;9.176;2023-03-12T01:58:28;12.50;95.70
63383;DHT22;49512;48.744;9.176;2023-03-12T02:00:55;12.50;95.70
63383;DHT22;49512;48.744;9.176;2023-03-12T02:03:20;12.50;95.70
63383;DHT22;49512;48.744;9.176;2023-03-12T02:06:06;12.50;95.70
63383;DHT22;49512;48.744;9.176;2023-03-12T02:08:34;12.50;95.60
63383;DHT22;49512;48.744;9.176;2023-03-12T02:11:01;12.50;95.60
63383;DHT22;49512;48.744;9.176;2023-03-12T02:13:26;12.50;95.60
63383;DHT22;49512;48.744;9.176;2023-03-12T02:15:52;12.50;95.60
63383;DHT22;49512;48.744;9.176;2023-03-12T02:18:18;12.50;95.50
63383;DHT22;49512;48.744;9.176;2023-03-12T02:23:29;12.40;95.80
63383;DHT22;49512;48.744;9.176;2023-03-12T02:25:56;12.50;95.80
63383;DHT22;49512;48.744;9.176;2023-03-12T02:28:22;12.50;95.50
63383;DHT22;49512;48.744;9.176;2023-03-12T02:30:50;12.40;95.40
63383;DHT22;49512;48.744;9.176;2023-03-12T02:33:16;12.40;95.40
63383;DHT22;49512;48.744;9.176;2023-03-12T02:35:42;12.50;95.50
63383;DHT22;49512;48.744;9.176;2023-03-12T02:40:52;12.50;95.40
63383;DHT22;49512;48.744;9.176;2023-03-12T02:43:18;12.50;95.40
63383;DHT22;49512;48.744;9.176;2023-03-12T02:45:44;12.40;95.40
63383;DHT22;49512;48.744;9.176;2023-03-12T02:48:10;12.40;95.40
63383;DHT22;49512;48.744;9.176;2023-03-12T02:50:35;12.40;95.40
63383;DHT22;49512;48.744;9.176;2023-03-12T02:53:01;12.40;95.40
63383;DHT22;49512;48.744;9.176;2023-03-12T02:55:26;12.40;95.40
63383;DHT22;49512;48.744;9.176;2023-03-12T02:57:52;12.40;95.30
63383;DHT22;49512;48.744;9.176;2023-03-12T03:00:17;12.40;95.40
63383;DHT22;49512;48.744;9.176;2023-03-12T03:02:43;12.40;95.30
63383;DHT22;49512;48.744;9.176;2023-03-12T03:05:10;12.40;95.30
63383;DHT22;49512;48.744;9.176;2023-03-12T03:07:36;12.40;95.30
63383;DHT22;49512;48.744;9.176;2023-03-12T03:10:01;12.40;95.30
63383;DHT22;49512;48.744;9.176;2023-03-12T03:12:37;12.40;95.30
63383;DHT22;49512;48.744;9.176;2023-03-12T03:15:04;12.40;95.20
63383;DHT22;49512;48.744;9.176;2023-03-12T03:17:29;12.40;95.20
63383;DHT22;49512;48.744;9.176;2023-03-12T03:19:55;12.40;95.20
63383;DHT22;49512;48.744;9.176;2023-03-12T03:22:20;12.40;95.20
63383;DHT22;49512;48.744;9.176;2023-03-12T03:24:46;12.40;95.10
63383;DHT22;49512;48.744;9.176;2023-03-12T03:27:12;12.40;95.10
63383;DHT22;49512;48.744;9.176;2023-03-12T03:29:38;12.30;95.10
63383;DHT22;49512;48.744;9.176;2023-03-12T03:32:03;12.40;95.10
63383;DHT22;49512;48.744;9.176;2023-03-12T03:34:29;12.40;95.00
63383;DHT22;49512;48.744;9.176;2023-03-12T03:36:54;12.40;95.00
63383;DHT22;49512;48.744;9.176;2023-03-12T03:39:20;12.40;95.00
63383;DHT22;49512;48.744;9.176;2023-03-12T03:41:45;12.30;95.00
63383;DHT22;49512;48.744;9.176;2023-03-12T03:44:12;12.40;94.90
63383;DHT22;49512;48.744;9.176;2023-03-12T03:46:37;12.40;94.90
63383;DHT22;49512;48.744;9.176;2023-03-12T03:49:03;12.40;94.90
63383;DHT22;49512;48.744;9.176;2023-03-12T03:51:29;12.30;94.90
63383;DHT22;49512;48.744;9.176;2023-03-12T03:53:54;12.30;94.80
63383;DHT22;49512;48.744;9.176;2023-03-12T03:56:20;12.30;94.80
63383;DHT22;49512;48.744;9.176;2023-03-12T03:58:45;12.30;94.80
63383;DHT22;49512;48.744;9.176;2023-03-12T04:01:11;12.30;94.80
63383;DHT22;49512;48.744;9.176;2023-03-12T04:03:37;12.30;94.80
63383;DHT22;49512;48.744;9.176;2023-03-12T04:06:03;12.30;94.80
63383;DHT22;49512;48.744;9.176;2023-03-12T04:08:29;12.30;94.80
63383;DHT22;49512;48.744;9.176;2023-03-12T04:10:55;12.30;94.80
63383;DHT22;49512;48.744;9.176;2023-03-12T04:13:20;12.30;94.80
63383;DHT22;49512;48.744;9.176;2023-03-12T04:15:47;12.30;94.80
63383;DHT22;49512;48.744;9.176;2023-03-12T04:18:12;12.30;94.80
63383;DHT22;49512;48.744;9.176;2023-03-12T04:20:38;12.30;94.90
63383;DHT22;49512;48.744;9.176;2023-03-12T04:23:03;12.30;94.90
63383;DHT22;49512;48.744;9.176;2023-03-12T04:25:29;12.20;94.80
63383;DHT22;49512;48.744;9.176;2023-03-12T04:27:55;12.30;94.80
63383;DHT22;49512;48.744;9.176;2023-03-12T04:30:20;12.30;94.90
63383;DHT22;49512;48.744;9.176;2023-03-12T04:32:46;12.30;94.80
63383;DHT22;49512;48.744;9.176;2023-03-12T04:35:13;12.30;94.90
63383;DHT22;49512;48.744;9.176;2023-03-12T04:37:38;12.30;94.90
63383;DHT22;49512;48.744;9.176;2023-03-12T04:40:04;12.30;94.90
63383;DHT22;49512;48.744;9.176;2023-03-12T04:42:35;12.30;94.90
63383;DHT22;49512;48.744;9.176;2023-03-12T04:45:01;12.30;94.90
63383;DHT22;49512;48.744;9.176;2023-03-12T04:47:26;12.30;94.90
63383;DHT22;49512;48.744;9.176;2023-03-12T04:49:51;12.20;94.90
63383;DHT22;49512;48.744;9.176;2023-03-12T04:52:17;12.30;94.90
63383;DHT22;49512;48.744;9.176;2023-03-12T04:54:43;12.30;94.90
63383;DHT22;49512;48.744;9.176;2023-03-12T04:57:08;12.30;94.90
63383;DHT22;49512;48.744;9.176;2023-03-12T04:59:34;12.20;94.90
63383;DHT22;49512;48.744;9.176;2023-03-12T05:01:59;14.50;95.80
63383;DHT22;49512;48.744;9.176;2023-03-12T05:04:25;12.30;95.30
63383;DHT22;49512;48.744;9.176;2023-03-12T05:06:50;12.30;94.80
63383;DHT22;49512;48.744;9.176;2023-03-12T05:09:16;12.20;94.80
63383;DHT22;49512;48.744;9.176;2023-03-12T05:11:41;12.20;94.80
63383;DHT22;49512;48.744;9.176;2023-03-12T05:14:07;12.20;94.80
63383;DHT22;49512;48.744;9.176;2023-03-12T05:16:33;12.20;94.80
63383;DHT22;49512;48.744;9.176;2023-03-12T05:18:58;12.10;94.70
63383;DHT22;49512;48.744;9.176;2023-03-12T05:21:24;12.20;94.70
63383;DHT22;49512;48.744;9.176;2023-03-12T05:23:49;12.20;94.70
63383;DHT22;49512;48.744;9.176;2023-03-12T05:28:40;12.20;94.70
63383;DHT22;49512;48.744;9.176;2023-03-12T05:31:07;12.20;94.70
63383;DHT22;49512;48.744;9.176;2023-03-12T05:33:33;12.20;94.70
63383;DHT22;49512;48.744;9.176;2023-03-12T05:35:59;12.20;94.70
63383;DHT22;49512;48.744;9.176;2023-03-12T05:38:24;12.20;94.70
63383;DHT22;49512;48.744;9.176;2023-03-12T05:40:50;12.20;94.70
63383;DHT22;49512;48.744;9.176;2023-03-12T05:43:16;12.20;94.70
63383;DHT22;49512;48.744;9.176;2023-03-12T05:45:42;12.20;94.70
63383;DHT22;49512;48.744;9.176;2023-03-12T05:48:07;12.20;94.70
63383;DHT22;49512;48.744;9.176;2023-03-12T05:50:33;12.10;94.70
63383;DHT22;49512;48.744;9.176;2023-03-12T05:52:58;12.20;94.80
63383;DHT22;49512;48.744;9.176;2023-03-12T05:55:23;12.20;94.80
63383;DHT22;49512;48.744;9.176;2023-03-12T05:57:49;12.20;94.80
63383;DHT22;49512;48.744;9.176;2023-03-12T06:00:15;12.10;94.80
63383;DHT22;49512;48.744;9.176;2023-03-12T06:02:40;12.20;94.80
63383;DHT22;49512;48.744;9.176;2023-03-12T06:05:06;12.10;94.90
63383;DHT22;49512;48.744;9.176;2023-03-12T06:07:33;12.20;94.90
63383;DHT22;49512;48.744;9.176;2023-03-12T06:09:58;12.00;94.80
63383;DHT22;49512;48.744;9.176;2023-03-12T06:12:24;12.20;94.90
63383;DHT22;49512;48.744;9.176;2023-03-12T06:14:49;12.20;94.90
63383;DHT22;49512;48.744;9.176;2023-03-12T06:17:15;12.20;94.90
63383;DHT22;49512;48.744;9.176;2023-03-12T06:19:40;12.10;94.90
63383;DHT22;49512;48.744;9.176;2023-03-12T06:22:06;12.10;95.00
63383;DHT22;49512;48.744;9.176;2023-03-12T06:24:31;12.10;95.00
63383;DHT22;49512;48.744;9.176;2023-03-12T06:26:57;12.20;95.10
63383;DHT22;49512;48.744;9.176;2023-03-12T06:29:22;12.10;95.00
63383;DHT22;49512;48.744;9.176;2023-03-12T06:31:48;12.10;95.00
63383;DHT22;49512;48.744;9.176;2023-03-12T06:34:16;12.10;95.10
63383;DHT22;49512;48.744;9.176;2023-03-12T06:36:41;12.10;95.10
63383;DHT22;49512;48.744;9.176;2023-03-12T06:39:07;12.10;95.10
63383;DHT22;49512;48.744;9.176;2023-03-12T06:41:34;12.10;95.10
63383;DHT22;49512;48.744;9.176;2023-03-12T06:43:59;12.20;95.20
63383;DHT22;49512;48.744;9.176;2023-03-12T06:46:28;12.10;95.20
63383;DHT22;49512;48.744;9.176;2023-03-12T06:48:53;12.10;95.20
63383;DHT22;49512;48.744;9.176;2023-03-12T06:51:19;12.10;95.20
63383;DHT22;49512;48.744;9.176;2023-03-12T06:53:44;12.10;95.20
63383;DHT22;49512;48.744;9.176;2023-03-12T06:56:10;10.80;94.80
63383;DHT22;49512;48.744;9.176;2023-03-12T06:58:36;12.10;95.20
63383;DHT22;49512;48.744;9.176;2023-03-12T07:01:02;12.10;95.20
63383;DHT22;49512;48.744;9.176;2023-03-12T07:03:28;12.10;95.20
63383;DHT22;49512;48.744;9.176;2023-03-12T07:05:54;12.10;95.20
63383;DHT22;49512;48.744;9.176;2023-03-12T07:08:20;12.10;95.20
63383;DHT22;49512;48.744;9.176;2023-03-12T07:10:47;12.10;95.20
63383;DHT22;49512;48.744;9.176;2023-03-12T07:13:12;11.20;95.00
63383;DHT22;49512;48.744;9.176;2023-03-12T07:15:38;12.10;95.20
63383;DHT22;49512;48.744;9.176;2023-03-12T07:18:04;12.10;95.20
63383;DHT22;49512;48.744;9.176;2023-03-12T07:20:30;12.10;95.20
63383;DHT22;49512;48.744;9.176;2023-03-12T07:22:57;12.10;95.20
63383;DHT22;49512;48.744;9.176;2023-03-12T07:25:22;12.10;95.20
63383;DHT22;49512;48.744;9.176;2023-03-12T07:27:48;12.10;95.20
63383;DHT22;49512;48.744;9.176;2023-03-12T07:30:13;12.10;95.20
63383;DHT22;49512;48.744;9.176;2023-03-12T07:32:39;12.10;95.20
63383;DHT22;49512;48.744;9.176;2023-03-12T07:35:05;13.10;95.80
63383;DHT22;49512;48.744;9.176;2023-03-12T07:37:31;12.10;95.30
63383;DHT22;49512;48.744;9.176;2023-03-12T07:39:56;12.00;95.30
63383;DHT22;49512;48.744;9.176;2023-03-12T07:42:22;12.10;95.30
63383;DHT22;49512;48.744;9.176;2023-03-12T07:44:47;12.00;95.30
63383;DHT22;49512;48.744;9.176;2023-03-12T07:47:13;12.10;95.40
63383;DHT22;49512;48.744;9.176;2023-03-12T07:49:38;12.00;95.40
63383;DHT22;49512;48.744;9.176;2023-03-12T07:52:08;12.00;95.40
63383;DHT22;49512;48.744;9.176;2023-03-12T07:54:36;12.10;95.50
63383;DHT22;49512;48.744;9.176;2023-03-12T07:57:02;12.10;95.60
63383;DHT22;49512;48.744;9.176;2023-03-12T07:59:28;12.00;95.50
63383;DHT22;49512;48.744;9.176;2023-03-12T08:01:53;12.10;95.60
63383;DHT22;49512;48.744;9.176;2023-03-12T08:04:19;12.00;95.60
63383;DHT22;49512;48.744;9.176;2023-03-12T08:06:44;12.10;95.80
63383;DHT22;49512;48.744;9.176;2023-03-12T08:09:10;12.00;95.80
63383;DHT22;49512;48.744;9.176;2023-03-12T08:11:35;12.00;95.80
63383;DHT22;49512;48.744;9.176;2023-03-12T08:14:02;12.00;95.80
63383;DHT22;49512;48.744;9.176;2023-03-12T08:16:27;12.00;95.80
63383;DHT22;49512;48.744;9.176;2023-03-12T08:18:53;12.10;95.80
63383;DHT22;49512;48.744;9.176;2023-03-12T08:21:18;12.00;95.90
63383;DHT22;49512;48.744;9.176;2023-03-12T08:23:47;12.00;95.90
63383;DHT22;49512;48.744;9.176;2023-03-12T08:26:12;12.00;95.90
63383;DHT22;49512;48.744;9.176;2023-03-12T08:28:38;12.10;95.90
63383;DHT22;49512;48.744;9.176;2023-03-12T08:31:04;12.00;95.90
63383;DHT22;49512;48.744;9.176;2023-03-12T08:33:29;12.00;96.00
63383;DHT22;49512;48.744;9.176;2023-03-12T08:35:55;12.00;96.00
63383;DHT22;49512;48.744;9.176;2023-03-12T08:38:20;12.00;96.00
63383;DHT22;49512;48.744;9.176;2023-03-12T08:40:46;12.00;96.00
63383;DHT22;49512;48.744;9.176;2023-03-12T08:43:11;12.00;96.00
63383;DHT22;49512;48.744;9.176;2023-03-12T08:45:37;12.00;96.00
63383;DHT22;49512;48.744;9.176;2023-03-12T08:48:03;12.00;96.20
63383;DHT22;49512;48.744;9.176;2023-03-12T08:50:28;12.00;96.40
63383;DHT22;49512;48.744;9.176;2023-03-12T08:52:56;12.10;97.00
63383;DHT22;49512;48.744;9.176;2023-03-12T08:55:22;12.10;97.10
63383;DHT22;49512;48.744;9.176;2023-03-12T08:57:47;12.10;97.80
63383;DHT22;49512;48.744;9.176;2023-03-12T09:00:13;12.10;97.80
63383;DHT22;49512;48.744;9.176;2023-03-12T09:02:43;12.10;97.80
63383;DHT22;49512;48.744;9.176;2023-03-12T09:05:09;12.10;97.80
63383;DHT22;49512;48.744;9.176;2023-03-12T09:07:35;12.10;97.90
63383;DHT22;49512;48.744;9.176;2023-03-12T09:10:01;12.10;97.80
63383;DHT22;49512;48.744;9.176;2023-03-12T09:12:27;12.10;97.80
63383;DHT22;49512;48.744;9.176;2023-03-12T09:14:52;12.00;97.80
63383;DHT22;49512;48.744;9.176;2023-03-12T09:17:18;12.10;97.80
63383;DHT22;49512;48.744;9.176;2023-03-12T09:19:43;12.10;97.80
63383;DHT22;49512;48.744;9.176;2023-03-12T09:22:08;12.00;97.70
63383;DHT22;49512;48.744;9.176;2023-03-12T09:24:34;12.10;97.70
63383;DHT22;49512;48.744;9.176;2023-03-12T09:27:00;12.10;97.70
63383;DHT22;49512;48.744;9.176;2023-03-12T09:29:26;12.10;97.70
63383;DHT22;49512;48.744;9.176;2023-03-12T09:31:51;12.10;97.70
63383;DHT22;49512;48.744;9.176;2023-03-12T09:34:17;12.00;97.60
63383;DHT22;49512;48.744;9.176;2023-03-12T09:36:42;12.10;98.20
63383;DHT22;49512;48.744;9.176;2023-03-12T09:39:08;12.80;98.90
63383;DHT22;49512;48.744;9.176;2023-03-12T09:41:37;12.10;98.60
63383;DHT22;49512;48.744;9.176;2023-03-12T09:47:09;12.10;98.50
63383;DHT22;49512;48.744;9.176;2023-03-12T09:49:42;12.10;98.50
63383;DHT22;49512;48.744;9.176;2023-03-12T09:52:19;12.10;98.90
63383;DHT22;49512;48.744;9.176;2023-03-12T09:54:51;12.10;98.50
63383;DHT22;49512;48.744;9.176;2023-03-12T09:57:21;12.10;98.50
63383;DHT22;49512;48.744;9.176;2023-03-12T09:59:48;12.10;98.50
63383;DHT22;49512;48.744;9.176;2023-03-12T10:04:59;12.10;98.90
63383;DHT22;49512;48.744;9.176;2023-03-12T10:15:14;12.00;99.90
63383;DHT22;49512;48.744;9.176;2023-03-12T10:25:34;12.00;99.90
63383;DHT22;49512;48.744;9.176;2023-03-12T10:29:03;12.10;99.90
63383;DHT22;49512;48.744;9.176;2023-03-12T10:30:57;12.10;99.90
63383;DHT22;49512;48.744;9.176;2023-03-12T10:33:24;12.10;99.90
63383;DHT22;49512;48.744;9.176;2023-03-12T10:35:54;12.10;99.90
63383;DHT22;49512;48.744;9.176;2023-03-12T10:40:46;12.10;99.90
63383;DHT22;49512;48.744;9.176;2023-03-12T10:43:12;12.00;99.90
63383;DHT22;49512;48.744;9.176;2023-03-12T10:48:10;12.10;99.90
63383;DHT22;49512;48.744;9.176;2023-03-12T10:50:41;12.10;99.90
63383;DHT22;49512;48.744;9.176;2023-03-12T10:53:18;12.00;99.90
63383;DHT22;49512;48.744;9.176;2023-03-12T10:55:58;12.10;99.90
63383;DHT22;49512;48.744;9.176;2023-03-12T10:58:24;12.10;99.90
63383;DHT22;49512;48.744;9.176;2023-03-12T11:00:53;12.10;99.90
63383;DHT22;49512;48.744;9.176;2023-03-12T11:03:21;12.00;99.90
63383;DHT22;49512;48.744;9.176;2023-03-12T11:05:47;12.10;99.90
63383;DHT22;49512;48.744;9.176;2023-03-12T11:10:45;12.20;99.90
63383;DHT22;49512;48.744;9.176;2023-03-12T11:15:48;12.00;99.90
63383;DHT22;49512;48.744;9.176;2023-03-12T11:20:44;12.00;99.90
63383;DHT22;49512;48.744;9.176;2023-03-12T11:23:13;12.00;99.90
63383;DHT22;49512;48.744;9.176;2023-03-12T11:25:39;12.00;99.90
63383;DHT22;49512;48.744;9.176;2023-03-12T11:28:05;12.10;99.90
63383;DHT22;49512;48.744;9.176;2023-03-12T11:30:34;12.10;99.90
63383;DHT22;49512;48.744;9.176;2023-03-12T11:33:00;12.10;99.90
63383;DHT22;49512;48.744;9.176;2023-03-12T11:35:31;12.20;99.90
63383;DHT22;49512;48.744;9.176;2023-03-12T11:46:03;12.20;99.90
63383;DHT22;49512;48.744;9.176;2023-03-12T11:48:24;12.20;99.90
63383;DHT22;49512;48.744;9.176;2023-03-12T11:58:54;12.00;99.90
63383;DHT22;49512;48.744;9.176;2023-03-12T12:06:46;12.00;99.90
63383;DHT22;49512;48.744;9.176;2023-03-12T12:09:27;12.00;99.90
63383;DHT22;49512;48.744;9.176;2023-03-12T12:20:13;12.00;99.90
63383;DHT22;49512;48.744;9.176;2023-03-12T12:36:03;12.90;99.90
63383;DHT22;49512;48.744;9.176;2023-03-12T12:38:40;12.10;99.90
63383;DHT22;49512;48.744;9.176;2023-03-12T12:41:11;12.10;99.90
63383;DHT22;49512;48.744;9.176;2023-03-12T12:43:39;12.10;99.90
63383;DHT22;49512;48.744;9.176;2023-03-12T12:46:07;12.10;99.90
63383;DHT22;49512;48.744;9.176;2023-03-12T12:48:37;12.10;99.90
63383;DHT22;49512;48.744;9.176;2023-03-12T12:51:04;12.10;99.90
63383;DHT22;49512;48.744;9.176;2023-03-12T12:58:55;12.00;99.90
63383;DHT22;49512;48.744;9.176;2023-03-12T13:01:22;12.00;99.90
63383;DHT22;49512;48.744;9.176;2023-03-12T13:03:47;12.00;99.90
63383;DHT22;49512;48.744;9.176;2023-03-12T13:06:13;12.90;99.90
63383;DHT22;49512;48.744;9.176;2023-03-12T13:13:47;12.10;99.90
63383;DHT22;49512;48.744;9.176;2023-03-12T13:16:16;12.00;99.90
63383;DHT22;49512;48.744;9.176;2023-03-12T13:18:44;12.00;99.90
63383;DHT22;49512;48.744;9.176;2023-03-12T13:21:31;12.10;99.90
63383;DHT22;49512;48.744;9.176;2023-03-12T13:24:10;12.00;99.90
63383;DHT22;49512;48.744;9.176;2023-03-12T13:29:20;12.00;99.90
63383;DHT22;49512;48.744;9.176;2023-03-12T13:31:55;12.00;99.90
63383;DHT22;49512;48.744;9.176;2023-03-12T13:36:52;12.10;99.90
63383;DHT22;49512;48.744;9.176;2023-03-12T13:39:20;12.00;99.90
63383;DHT22;49512;48.744;9.176;2023-03-12T13:44:55;12.10;99.90
63383;DHT22;49512;48.744;9.176;2023-03-12T13:47:36;12.10;99.90
63383;DHT22;49512;48.744;9.176;2023-03-12T13:50:03;12.10;99.90
63383;DHT22;49512;48.744;9.176;2023-03-12T13:55:05;12.10;99.90
63383;DHT22;49512;48.744;9.176;2023-03-12T13:57:39;12.10;99.90
63383;DHT22;49512;48.744;9.176;2023-03-12T14:00:11;12.10;99.90
63383;DHT22;49512;48.744;9.176;2023-03-12T14:02:42;12.10;99.90
63383;DHT22;49512;48.744;9.176;2023-03-12T14:05:09;12.10;99.90
63383;DHT22;49512;48.744;9.176;2023-03-12T14:07:39;12.10;99.90
63383;DHT22;49512;48.744;9.176;2023-03-12T14:10:20;12.10;99.90
63383;DHT22;49512;48.744;9.176;2023-03-12T14:12:55;12.10;99.90
63383;DHT22;49512;48.744;9.176;2023-03-12T14:15:42;12.00;99.90
63383;DHT22;49512;48.744;9.176;2023-03-12T14:18:17;12.10;99.90
63383;DHT22;49512;48.744;9.176;2023-03-12T14:20:48;12.10;99.90
63383;DHT22;49512;48.744;9.176;2023-03-12T14:23:15;12.10;99.90
63383;DHT22;49512;48.744;9.176;2023-03-12T14:25:42;12.10;99.90
63383;DHT22;49512;48.744;9.176;2023-03-12T14:28:21;12.10;99.90
63383;DHT22;49512;48.744;9.176;2023-03-12T14:33:15;12.10;99.90
63383;DHT22;49512;48.744;9.176;2023-03-12T14:44:40;12.20;99.90
63383;DHT22;49512;48.744;9.176;2023-03-12T14:47:17;12.20;99.90
63383;DHT22;49512;48.744;9.176;2023-03-12T14:49:44;12.20;99.90
63383;DHT22;49512;48.744;9.176;2023-03-12T14:52:10;12.20;99.90
63383;DHT22;49512;48.744;9.176;2023-03-12T14:54:36;12.20;99.90
63383;DHT22;49512;48.744;9.176;2023-03-12T14:57:04;12.20;99.90
63383;DHT22;49512;48.744;9.176;2023-03-12T14:59:35;12.20;99.90
63383;DHT22;49512;48.744;9.176;2023-03-12T15:02:10;12.20;99.90
63383;DHT22;49512;48.744;9.176;2023-03-12T15:04:36;12.20;99.90
63383;DHT22;49512;48.744;9.176;2023-03-12T15:07:02;12.20;99.90
63383;DHT22;49512;48.744;9.176;2023-03-12T15:09:29;12.20;99.90
63383;DHT22;49512;48.744;9.176;2023-03-12T15:11:56;12.20;99.90
63383;DHT22;49512;48.744;9.176;2023-03-12T15:14:23;12.20;99.90
63383;DHT22;49512;48.744;9.176;2023-03-12T15:16:50;12.20;99.90
63383;DHT22;49512;48.744;9.176;2023-03-12T15:19:17;12.20;99.90
63383;DHT22;49512;48.744;9.176;2023-03-12T15:21:44;12.20;99.90
63383;DHT22;49512;48.744;9.176;2023-03-12T15:24:10;12.20;99.90
63383;DHT22;49512;48.744;9.176;2023-03-12T15:26:37;12.10;99.90
63383;DHT22;49512;48.744;9.176;2023-03-12T15:31:42;12.20;99.90
63383;DHT22;49512;48.744;9.176;2023-03-12T15:34:09;12.10;99.90
63383;DHT22;49512;48.744;9.176;2023-03-12T15:36:37;12.20;99.90
63383;DHT22;49512;48.744;9.176;2023-03-12T15:41:54;12.10;99.90
63383;DHT22;49512;48.744;9.176;2023-03-12T15:44:24;12.10;99.90
63383;DHT22;49512;48.744;9.176;2023-03-12T15:46:51;12.10;99.90
63383;DHT22;49512;48.744;9.176;2023-03-12T15:49:20;12.00;99.90
63383;DHT22;49512;48.744;9.176;2023-03-12T15:52:24;12.10;99.90
63383;DHT22;49512;48.744;9.176;2023-03-12T15:54:32;12.00;99.90
63383;DHT22;49512;48.744;9.176;2023-03-12T15:57:11;12.10;99.90
63383;DHT22;49512;48.744;9.176;2023-03-12T15:59:42;12.10;99.90
63383;DHT22;49512;48.744;9.176;2023-03-12T16:02:08;12.70;99.90
63383;DHT22;49512;48.744;9.176;2023-03-12T16:04:35;12.10;99.90
63383;DHT22;49512;48.744;9.176;2023-03-12T16:07:05;12.20;99.90
63383;DHT22;49512;48.744;9.176;2023-03-12T16:09:33;12.20;99.90
63383;DHT22;49512;48.744;9.176;2023-03-12T16:11:58;12.20;99.90
63383;DHT22;49512;48.744;9.176;2023-03-12T16:14:31;12.20;99.90
63383;DHT22;49512;48.744;9.176;2023-03-12T16:16:58;12.20;99.90
63383;DHT22;49512;48.744;9.176;2023-03-12T16:19:25;12.20;99.90
63383;DHT22;49512;48.744;9.176;2023-03-12T16:21:52;12.20;99.90
63383;DHT22;49512;48.744;9.176;2023-03-12T16:24:17;12.20;99.90
63383;DHT22;49512;48.744;9.176;2023-03-12T16:29:15;12.20;99.90
63383;DHT22;49512;48.744;9.176;2023-03-12T16:31:42;12.20;99.90
63383;DHT22;49512;48.744;9.176;2023-03-12T16:34:09;12.10;99.90
63383;DHT22;49512;48.744;9.176;2023-03-12T16:36:34;12.20;99.90
63383;DHT22;49512;48.744;9.176;2023-03-12T16:39:00;12.20;99.90
63383;DHT22;49512;48.744;9.176;2023-03-12T16:41:26;12.20;99.90
63383;DHT22;49512;48.744;9.176;2023-03-12T16:43:52;12.20;99.90
63383;DHT22;49512;48.744;9.176;2023-03-12T16:46:20;12.20;99.90
63383;DHT22;49512;48.744;9.176;2023-03-12T16:48:50;12.30;99.90
63383;DHT22;49512;48.744;9.176;2023-03-12T16:51:16;12.20;99.90
63383;DHT22;49512;48.744;9.176;2023-03-12T16:53:42;12.20;99.90
63383;DHT22;49512;48.744;9.176;2023-03-12T16:56:18;12.20;99.90
63383;DHT22;49512;48.744;9.176;2023-03-12T16:58:45;12.20;99.90
63383;DHT22;49512;48.744;9.176;2023-03-12T17:01:11;12.20;99.90
63383;DHT22;49512;48.744;9.176;2023-03-12T17:03:38;12.20;99.90
63383;DHT22;49512;48.744;9.176;2023-03-12T17:06:04;12.30;99.90
63383;DHT22;49512;48.744;9.176;2023-03-12T17:08:30;12.30;99.90
63383;DHT22;49512;48.744;9.176;2023-03-12T17:10:56;12.30;99.90
63383;DHT22;49512;48.744;9.176;2023-03-12T17:13:26;12.20;99.90
63383;DHT22;49512;48.744;9.176;2023-03-12T17:15:52;12.30;99.90
63383;DHT22;49512;48.744;9.176;2023-03-12T17:18:17;12.30;99.90
63383;DHT22;49512;48.744;9.176;2023-03-12T17:20:43;12.30;99.90
63383;DHT22;49512;48.744;9.176;2023-03-12T17:23:09;12.30;99.90
63383;DHT22;49512;48.744;9.176;2023-03-12T17:25:36;12.20;99.90
63383;DHT22;49512;48.744;9.176;2023-03-12T17:28:02;12.30;99.90
63383;DHT22;49512;48.744;9.176;2023-03-12T17:30:28;12.30;99.90
63383;DHT22;49512;48.744;9.176;2023-03-12T17:33:01;12.30;99.90
63383;DHT22;49512;48.744;9.176;2023-03-12T17:35:27;12.30;99.90
63383;DHT22;49512;48.744;9.176;2023-03-12T17:37:52;12.70;99.90